Time;durP1;ratioP1;P1;durP2;ratioP2;P2;SDS_P1;SDS_P2;PMS_P1;PMS_P2;Temp;Humidity;BMP_temperature;BMP_pressure;BME280_temperature;BME280_humidity;BME280_pressure;Samples;Min_cycle;Max_cycle;Signal;HPM_P1;HPM_P2
2023/04/15 00:01:52;;;;;;;10.90;7.13;;;;;;;6.03;91.32;100660.56;5051744;28;20412;-58
2023/04/15 00:04:17;;;;;;;12.73;8.38;;;;;;;5.96;90.67;100666.19;5052587;28;20516;-58
2023/04/15 00:06:50;;;;;;;13.10;8.05;;;;;;;5.84;90.76;100667.38;5053070;28;20025;-58
2023/04/15 00:09:15;;;;;;;13.75;8.13;;;;;;;5.76;91.57;100661.91;5052310;28;20424;-58
2023/04/15 00:11:40;;;;;;;13.73;7.70;;;;;;;5.85;91.10;100661.47;5053031;28;20029;-58
2023/04/15 00:14:06;;;;;;;13.23;7.82;;;;;;;5.92;92.35;100660.94;5052943;28;20048;-57
2023/04/15 00:16:31;;;;;;;14.13;8.27;;;;;;;5.89;91.44;100663.38;5052074;28;20104;-58
2023/04/15 00:18:57;;;;;;;15.00;8.25;;;;;;;5.92;91.44;100658.38;5052915;28;20112;-58
2023/04/15 00:21:22;;;;;;;12.93;8.05;;;;;;;5.88;91.70;100664.16;5052706;28;20052;-57
2023/04/15 00:23:51;;;;;;;12.23;7.75;;;;;;;5.87;92.30;100664.97;5051749;28;20052;-58
2023/04/15 00:26:18;;;;;;;14.70;8.48;;;;;;;5.91;92.48;100661.75;5052449;28;20033;-58
2023/04/15 00:28:43;;;;;;;16.80;8.02;;;;;;;5.93;92.24;100661.81;5053022;28;20052;-58
2023/04/15 00:31:09;;;;;;;13.95;8.70;;;;;;;5.96;92.50;100655.97;5052218;28;20060;-58
2023/04/15 00:33:35;;;;;;;15.15;8.65;;;;;;;5.90;92.90;100662.56;5052930;28;20362;-58
2023/04/15 00:36:01;;;;;;;16.23;8.02;;;;;;;5.88;92.36;100656.50;5052879;28;20025;-58
2023/04/15 00:38:27;;;;;;;13.50;8.13;;;;;;;5.68;92.83;100654.69;5050816;28;20029;-58
2023/04/15 00:40:52;;;;;;;13.02;7.80;;;;;;;5.61;92.68;100661.22;5051981;28;20419;-57
2023/04/15 00:43:18;;;;;;;14.45;8.32;;;;;;;5.64;93.46;100666.47;5052258;28;20027;-58
2023/04/15 00:45:43;;;;;;;13.93;7.72;;;;;;;5.53;93.27;100663.41;5052000;28;20039;-58
2023/04/15 00:48:09;;;;;;;12.02;8.38;;;;;;;5.46;93.44;100660.50;5052710;28;20488;-58
2023/04/15 00:50:34;;;;;;;11.15;8.13;;;;;;;5.38;93.50;100658.44;5054218;28;20056;-58
2023/04/15 00:53:00;;;;;;;15.23;8.05;;;;;;;5.39;93.41;100659.34;5056264;28;20057;-58
2023/04/15 00:55:25;;;;;;;15.73;9.20;;;;;;;5.55;93.31;100656.69;5056283;28;20033;-58
2023/04/15 00:57:51;;;;;;;17.65;9.07;;;;;;;5.50;93.52;100672.59;5056146;28;20033;-58
2023/04/15 01:00:17;;;;;;;12.93;9.05;;;;;;;5.59;93.23;100663.69;5056630;28;20060;-58
2023/04/15 01:02:42;;;;;;;13.00;8.05;;;;;;;5.48;93.47;100664.88;5056694;28;20025;-58
2023/04/15 01:05:08;;;;;;;13.18;9.18;;;;;;;5.36;93.13;100669.38;5055543;28;20124;-58
2023/04/15 01:07:33;;;;;;;16.92;9.68;;;;;;;5.26;93.49;100661.28;5055815;28;20021;-58
2023/04/15 01:09:59;;;;;;;16.55;9.30;;;;;;;5.28;93.83;100657.13;5056363;28;20025;-58
2023/04/15 01:12:26;;;;;;;15.45;9.10;;;;;;;5.18;93.71;100654.94;5055533;28;20032;-58
2023/04/15 01:14:53;;;;;;;17.17;9.35;;;;;;;5.22;93.76;100651.72;5056505;28;20025;-58
2023/04/15 01:17:18;;;;;;;14.25;9.18;;;;;;;5.17;93.81;100649.78;5056051;28;20057;-58
2023/04/15 01:19:43;;;;;;;16.48;9.30;;;;;;;5.03;94.00;100656.75;5055380;28;20029;-58
2023/04/15 01:22:09;;;;;;;15.10;9.25;;;;;;;5.08;94.51;100657.84;5055929;28;20483;-57
2023/04/15 01:24:36;;;;;;;14.73;9.70;;;;;;;4.97;94.54;100653.91;5056090;28;20936;-58
2023/04/15 01:27:03;;;;;;;14.60;10.10;;;;;;;4.98;95.07;100653.09;5055476;28;20029;-58
2023/04/15 01:29:31;;;;;;;14.20;9.68;;;;;;;5.08;94.86;100651.06;5056058;28;20287;-59
2023/04/15 01:31:56;;;;;;;16.05;10.25;;;;;;;4.91;95.25;100659.59;5055774;28;20045;-58
2023/04/15 01:34:22;;;;;;;14.07;9.98;;;;;;;5.00;95.24;100659.16;5054678;28;20478;-58
2023/04/15 01:36:47;;;;;;;14.00;9.80;;;;;;;4.94;95.74;100654.63;5055436;28;20029;-58
2023/04/15 01:39:13;;;;;;;15.43;10.23;;;;;;;5.03;95.72;100664.41;5055582;28;20020;-58
2023/04/15 01:41:39;;;;;;;13.43;9.43;;;;;;;4.94;95.20;100659.72;5054749;28;20032;-58
2023/04/15 01:44:05;;;;;;;16.83;10.68;;;;;;;4.82;95.81;100656.59;5056053;28;20053;-58
2023/04/15 01:46:31;;;;;;;15.15;10.70;;;;;;;4.77;96.38;100656.34;5055460;28;20029;-58
2023/04/15 01:48:56;;;;;;;21.58;11.27;;;;;;;4.90;96.41;100653.59;5055152;28;20059;-58
2023/04/15 01:51:22;;;;;;;15.50;11.15;;;;;;;4.76;96.52;100649.47;5055447;28;20034;-58
2023/04/15 01:53:47;;;;;;;15.95;10.88;;;;;;;4.89;96.99;100656.97;5053974;28;20395;-58
2023/04/15 01:56:12;;;;;;;15.02;10.82;;;;;;;4.81;97.29;100653.13;5054797;28;20025;-58
2023/04/15 01:58:39;;;;;;;15.90;11.48;;;;;;;4.84;96.97;100652.41;5055059;28;20539;-58
2023/04/15 02:01:04;;;;;;;14.93;10.48;;;;;;;4.75;97.30;100647.72;5054718;28;20029;-58
2023/04/15 02:03:30;;;;;;;17.92;10.85;;;;;;;4.84;97.18;100653.31;5054937;28;20020;-57
2023/04/15 02:05:55;;;;;;;15.90;10.95;;;;;;;4.82;97.07;100652.34;5055277;28;20040;-58
2023/04/15 02:08:21;;;;;;;17.50;10.48;;;;;;;4.75;97.10;100647.72;5053963;28;20028;-58
2023/04/15 02:10:46;;;;;;;17.05;11.57;;;;;;;4.66;97.27;100657.47;5055447;28;20031;-58
2023/04/15 02:13:12;;;;;;;17.05;11.93;;;;;;;4.63;98.00;100657.34;5055287;28;20051;-58
2023/04/15 02:15:38;;;;;;;16.60;11.15;;;;;;;4.72;98.21;100663.75;5054147;28;20025;-58
2023/04/15 02:18:03;;;;;;;14.65;10.90;;;;;;;4.60;98.11;100658.06;5055073;28;20456;-58
2023/04/15 02:20:31;;;;;;;17.52;11.70;;;;;;;4.58;98.04;100669.84;5054836;28;20021;-58
2023/04/15 02:22:57;;;;;;;17.08;11.20;;;;;;;4.63;98.72;100667.53;5053977;28;20024;-58
2023/04/15 02:25:22;;;;;;;13.73;11.20;;;;;;;4.59;98.48;100666.50;5054863;28;20037;-58
2023/04/15 02:27:47;;;;;;;15.70;11.63;;;;;;;4.59;98.98;100666.50;5055494;28;20032;-58
2023/04/15 02:30:13;;;;;;;16.27;11.45;;;;;;;4.63;99.46;100672.66;5054392;28;20539;-58
2023/04/15 02:32:39;;;;;;;16.02;11.50;;;;;;;4.59;99.73;100672.47;5054586;28;20021;-58
2023/04/15 02:35:06;;;;;;;15.57;12.32;;;;;;;4.54;100.00;100671.38;5054853;28;20020;-58
2023/04/15 02:37:35;;;;;;;16.23;12.03;;;;;;;4.49;100.00;100674.50;5053444;28;20017;-57
2023/04/15 02:40:01;;;;;;;17.45;12.73;;;;;;;4.51;100.00;100676.31;5055005;28;20036;-58
2023/04/15 02:42:29;;;;;;;15.68;11.77;;;;;;;4.42;100.00;100679.28;5054576;28;20017;-58
2023/04/15 02:44:55;;;;;;;17.55;12.05;;;;;;;4.45;100.00;100686.22;5054105;28;20029;-58
2023/04/15 02:47:20;;;;;;;16.55;12.13;;;;;;;4.47;100.00;100682.06;5054269;28;20357;-58
2023/04/15 02:49:45;;;;;;;16.25;11.13;;;;;;;4.49;100.00;100685.56;5054670;28;20032;-58
2023/04/15 02:52:10;;;;;;;16.55;11.65;;;;;;;4.50;100.00;100689.88;5053402;28;20028;-58
2023/04/15 02:54:36;;;;;;;16.52;11.80;;;;;;;4.61;100.00;100693.88;5054360;28;20028;-58
2023/04/15 02:57:01;;;;;;;15.27;12.15;;;;;;;4.41;100.00;100697.94;5054692;28;20063;-58
2023/04/15 02:59:27;;;;;;;17.15;11.55;;;;;;;4.49;100.00;100692.34;5053602;28;20048;-58
2023/04/15 03:01:52;;;;;;;15.40;12.15;;;;;;;4.42;100.00;100693.72;5054410;28;20448;-58
2023/04/15 03:04:17;;;;;;;13.05;11.60;;;;;;;4.33;100.00;100699.22;5053225;28;20464;-58
2023/04/15 03:06:42;;;;;;;20.13;12.13;;;;;;;4.34;100.00;100690.78;5054096;28;20029;-58
2023/04/15 03:09:08;;;;;;;15.13;11.98;;;;;;;4.41;100.00;100687.72;5053694;28;20099;-58
2023/04/15 03:11:35;;;;;;;17.27;12.52;;;;;;;4.44;100.00;100695.56;5053268;28;20029;-58
2023/04/15 03:14:01;;;;;;;17.25;12.85;;;;;;;4.29;100.00;100698.16;5053558;28;20021;-58
2023/04/15 03:16:26;;;;;;;18.92;12.18;;;;;;;4.21;100.00;100696.91;5053843;28;20032;-58
2023/04/15 03:18:51;;;;;;;16.35;12.35;;;;;;;4.14;100.00;100696.50;5053348;28;20036;-58
2023/04/15 03:21:18;;;;;;;16.52;12.52;;;;;;;4.16;100.00;100698.34;5053663;28;20468;-58
2023/04/15 03:23:44;;;;;;;15.97;12.70;;;;;;;4.06;100.00;100693.53;5053850;28;20177;-58
2023/04/15 03:26:09;;;;;;;14.18;12.60;;;;;;;4.05;100.00;100697.75;5053303;28;20480;-58
2023/04/15 03:28:34;;;;;;;16.80;12.73;;;;;;;4.03;100.00;100708.66;5053620;28;20441;-58
2023/04/15 03:31:00;;;;;;;17.73;13.18;;;;;;;4.00;100.00;100699.16;5053684;28;20064;-58
2023/04/15 03:33:25;;;;;;;17.67;12.98;;;;;;;4.03;100.00;100703.56;5052646;28;20473;-58
2023/04/15 03:35:52;;;;;;;17.60;13.77;;;;;;;4.05;100.00;100712.19;5053623;28;20037;-58
2023/04/15 03:38:17;;;;;;;18.00;13.65;;;;;;;4.15;100.00;100714.44;5053222;28;20108;-58
2023/04/15 03:40:43;;;;;;;16.02;12.85;;;;;;;4.09;100.00;100716.63;5053077;28;20421;-58
2023/04/15 03:43:08;;;;;;;17.15;12.82;;;;;;;4.02;100.00;100719.69;5053658;28;20032;-58
2023/04/15 03:45:34;;;;;;;14.65;12.82;;;;;;;4.13;100.00;100721.09;5053149;28;20067;-58
2023/04/15 03:47:59;;;;;;;16.20;13.52;;;;;;;4.15;100.00;100724.63;5052741;28;20440;-58
2023/04/15 03:50:25;;;;;;;17.20;13.70;;;;;;;4.05;100.00;100727.47;5053340;28;20035;-58
2023/04/15 03:52:50;;;;;;;16.45;13.35;;;;;;;4.02;100.00;100727.31;5053066;28;20380;-58
2023/04/15 03:55:16;;;;;;;18.50;13.98;;;;;;;3.88;100.00;100734.22;5052576;28;20025;-58
2023/04/15 03:57:41;;;;;;;19.05;13.95;;;;;;;3.82;100.00;100739.84;5053505;28;20098;-58
2023/04/15 04:00:08;;;;;;;17.40;14.38;;;;;;;3.69;100.00;100742.50;5053277;28;20029;-57
2023/04/15 04:02:34;;;;;;;16.92;14.15;;;;;;;3.62;100.00;100743.84;5052262;28;20033;-58
2023/04/15 04:04:59;;;;;;;18.27;15.10;;;;;;;3.71;100.00;100743.50;5052935;28;20086;-58
2023/04/15 04:07:25;;;;;;;16.70;14.18;;;;;;;3.79;100.00;100754.97;5051987;28;20032;-57
2023/04/15 04:09:50;;;;;;;18.42;14.75;;;;;;;3.66;100.00;100753.41;5053336;28;20388;-58
2023/04/15 04:12:16;;;;;;;17.00;14.23;;;;;;;3.57;100.00;100763.09;5052704;28;20056;-58
2023/04/15 04:14:41;;;;;;;21.00;15.55;;;;;;;3.56;100.00;100769.84;5052327;28;20021;-57
2023/04/15 04:17:06;;;;;;;19.48;14.75;;;;;;;3.56;100.00;100766.44;5053277;28;20036;-58
2023/04/15 04:19:32;;;;;;;16.13;14.43;;;;;;;3.54;100.00;100765.47;5052809;28;20079;-58
2023/04/15 04:21:57;;;;;;;17.98;15.50;;;;;;;3.54;100.00;100775.66;5052116;28;20079;-58
2023/04/15 04:24:23;;;;;;;17.48;15.10;;;;;;;3.54;100.00;100784.19;5051516;28;20029;-58
2023/04/15 04:26:48;;;;;;;20.33;16.02;;;;;;;3.43;100.00;100775.06;5053013;28;20056;-58
2023/04/15 04:29:13;;;;;;;20.95;15.88;;;;;;;3.43;100.00;100781.03;5052094;28;20025;-58
2023/04/15 04:31:39;;;;;;;18.27;16.13;;;;;;;3.45;100.00;100784.53;5052630;28;20512;-58
2023/04/15 04:34:04;;;;;;;19.30;15.80;;;;;;;3.46;100.00;100793.09;5052586;28;20029;-58
2023/04/15 04:36:29;;;;;;;18.73;16.55;;;;;;;3.37;100.00;100800.16;5051828;28;20048;-57
2023/04/15 04:38:55;;;;;;;23.15;17.15;;;;;;;3.48;100.00;100798.25;5052563;28;20017;-58
2023/04/15 04:41:20;;;;;;;20.45;16.90;;;;;;;3.46;100.00;100805.81;5052617;28;20056;-58
2023/04/15 04:43:46;;;;;;;20.70;16.13;;;;;;;3.45;100.00;100809.16;5051957;28;20099;-58
2023/04/15 04:46:11;;;;;;;19.55;16.55;;;;;;;3.55;100.00;100808.88;5052761;28;20025;-58
2023/04/15 04:48:36;;;;;;;23.65;17.90;;;;;;;3.62;100.00;100808.44;5052379;28;20100;-58
2023/04/15 04:51:02;;;;;;;20.20;17.02;;;;;;;3.67;100.00;100815.44;5051920;28;20427;-58
2023/04/15 04:53:27;;;;;;;21.27;16.95;;;;;;;3.70;100.00;100816.50;5052073;28;20028;-58
2023/04/15 04:55:53;;;;;;;20.83;16.58;;;;;;;3.75;100.00;100814.25;5052556;28;20104;-58
2023/04/15 04:58:18;;;;;;;19.58;15.95;;;;;;;3.81;100.00;100819.69;5051607;28;20046;-58
2023/04/15 05:00:43;;;;;;;21.15;17.13;;;;;;;3.84;100.00;100830.03;5052453;28;20027;-58
2023/04/15 05:03:09;;;;;;;19.33;16.15;;;;;;;3.86;100.00;100831.03;5052500;28;20025;-58
2023/04/15 05:05:35;;;;;;;19.33;16.52;;;;;;;3.90;100.00;100830.41;5051114;28;20459;-57
2023/04/15 05:08:01;;;;;;;20.33;16.00;;;;;;;3.94;100.00;100831.47;5052727;28;20048;-57
2023/04/15 05:10:26;;;;;;;20.08;16.23;;;;;;;3.94;100.00;100827.22;5052082;28;20033;-58
2023/04/15 05:12:51;;;;;;;20.70;15.90;;;;;;;3.98;100.00;100837.56;5051739;28;20472;-58
2023/04/15 05:15:17;;;;;;;25.05;16.73;;;;;;;4.00;100.00;100836.00;5052144;28;20025;-58
2023/04/15 05:17:42;;;;;;;18.77;16.00;;;;;;;4.07;100.00;100838.13;5052161;28;20029;-58
2023/04/15 05:20:08;;;;;;;22.95;16.65;;;;;;;4.05;100.00;100849.91;5051829;28;20025;-58
2023/04/15 05:22:33;;;;;;;18.10;15.75;;;;;;;4.18;100.00;100852.31;5051690;28;20103;-58
2023/04/15 05:24:59;;;;;;;19.20;16.35;;;;;;;4.20;100.00;100865.19;5051483;28;20049;-58
2023/04/15 05:27:24;;;;;;;19.08;15.88;;;;;;;4.21;100.00;100865.25;5052010;28;20115;-58
2023/04/15 05:29:50;;;;;;;19.85;15.85;;;;;;;4.22;100.00;100874.69;5052144;28;20492;-58
2023/04/15 05:32:16;;;;;;;17.80;15.88;;;;;;;4.23;100.00;100873.88;5051171;28;20029;-58
2023/04/15 05:34:41;;;;;;;20.10;16.10;;;;;;;4.33;100.00;100882.91;5052206;28;20070;-58
2023/04/15 05:37:06;;;;;;;18.70;15.63;;;;;;;4.33;100.00;100874.41;5055477;28;20045;-58
2023/04/15 05:39:32;;;;;;;18.35;15.48;;;;;;;4.37;100.00;100884.84;5055020;28;20448;-58
2023/04/15 05:41:58;;;;;;;21.63;16.50;;;;;;;4.40;100.00;100881.59;5055980;28;20035;-58
2023/04/15 05:44:24;;;;;;;19.85;15.65;;;;;;;4.36;100.00;100892.41;5055581;28;20025;-57
2023/04/15 05:46:49;;;;;;;23.88;16.55;;;;;;;4.34;100.00;100888.88;5055012;28;20033;-58
2023/04/15 05:49:15;;;;;;;19.63;15.95;;;;;;;4.36;100.00;100897.53;5055598;28;20032;-58
2023/04/15 05:51:40;;;;;;;19.77;16.13;;;;;;;4.39;100.00;100902.78;5055976;28;20029;-58
2023/04/15 05:54:05;;;;;;;21.27;16.17;;;;;;;4.35;100.00;100904.31;5055047;28;20025;-58
2023/04/15 05:56:31;;;;;;;20.05;16.85;;;;;;;4.31;100.00;100907.47;5055242;28;20021;-58
2023/04/15 05:58:56;;;;;;;22.20;16.70;;;;;;;4.37;100.00;100914.59;5055678;28;20035;-58
2023/04/15 06:01:21;;;;;;;19.98;16.95;;;;;;;4.35;100.00;100911.97;5054509;28;20524;-58
2023/04/15 06:03:47;;;;;;;18.83;16.65;;;;;;;4.37;100.00;100912.91;5055243;28;20020;-58
2023/04/15 06:06:13;;;;;;;20.02;17.83;;;;;;;4.32;100.00;100914.31;5055523;28;20584;-58
2023/04/15 06:08:38;;;;;;;20.13;17.75;;;;;;;4.45;100.00;100923.53;5054198;28;20021;-58
2023/04/15 06:11:03;;;;;;;24.95;20.23;;;;;;;4.44;100.00;100926.88;5055380;28;20086;-58
2023/04/15 06:13:29;;;;;;;25.33;19.45;;;;;;;4.53;100.00;100927.41;5055129;28;20479;-58
2023/04/15 06:15:54;;;;;;;22.25;19.08;;;;;;;4.59;100.00;100931.97;5054530;28;20048;-58
2023/04/15 06:18:20;;;;;;;21.67;17.67;;;;;;;4.64;100.00;100934.78;5054784;28;20032;-58
2023/04/15 06:20:45;;;;;;;22.05;18.05;;;;;;;4.66;100.00;100936.63;5054966;28;20025;-59
2023/04/15 06:23:11;;;;;;;18.73;16.52;;;;;;;4.70;100.00;100941.09;5054561;28;20040;-59
2023/04/15 06:25:36;;;;;;;24.42;17.70;;;;;;;4.81;100.00;100957.00;5054683;28;20051;-58
2023/04/15 06:28:01;;;;;;;20.50;17.58;;;;;;;4.87;100.00;100959.03;5054945;28;20029;-58
2023/04/15 06:30:26;;;;;;;19.52;16.95;;;;;;;4.95;100.00;100965.41;5053346;28;20099;-58
2023/04/15 06:32:52;;;;;;;20.50;16.42;;;;;;;5.07;100.00;100965.19;5054356;28;20372;-58
2023/04/15 06:35:17;;;;;;;19.85;17.20;;;;;;;5.21;100.00;100968.50;5053397;28;20507;-58
2023/04/15 06:37:43;;;;;;;24.48;18.17;;;;;;;5.36;100.00;100965.84;5054927;28;20025;-58
2023/04/15 06:40:09;;;;;;;22.88;18.98;;;;;;;5.56;100.00;100974.56;5054842;28;20092;-58
2023/04/15 06:42:35;;;;;;;23.77;20.05;;;;;;;5.70;100.00;100976.16;5053765;28;20405;-58
2023/04/15 06:45:01;;;;;;;22.60;18.25;;;;;;;5.84;100.00;100983.69;5054704;28;20025;-58
2023/04/15 06:47:26;;;;;;;21.45;17.65;;;;;;;5.92;100.00;100975.56;5053239;28;20439;-58
2023/04/15 06:49:51;;;;;;;22.38;18.83;;;;;;;6.01;100.00;100982.00;5053739;28;20056;-58
2023/04/15 06:52:17;;;;;;;20.90;17.35;;;;;;;6.16;100.00;100990.44;5054041;28;20473;-58
2023/04/15 06:54:42;;;;;;;20.40;18.20;;;;;;;6.22;100.00;100990.75;5054618;28;20031;-58
2023/04/15 06:57:08;;;;;;;21.42;17.50;;;;;;;6.36;100.00;100993.09;5053855;28;20033;-58
2023/04/15 06:59:34;;;;;;;21.73;17.80;;;;;;;6.46;100.00;101010.66;5054095;28;20048;-58
2023/04/15 07:01:59;;;;;;;19.23;16.88;;;;;;;6.61;100.00;101010.56;5054194;28;20036;-58
2023/04/15 07:04:25;;;;;;;21.33;17.13;;;;;;;6.72;100.00;101013.63;5053029;28;20048;-58
2023/04/15 07:06:50;;;;;;;19.35;16.67;;;;;;;6.86;100.00;101011.72;5053758;28;20029;-58
2023/04/15 07:09:15;;;;;;;19.38;17.13;;;;;;;6.98;100.00;101019.97;5053999;28;20465;-58
2023/04/15 07:11:41;;;;;;;19.85;16.50;;;;;;;7.06;100.00;101026.34;5053346;28;20078;-58
2023/04/15 07:14:06;;;;;;;18.75;16.67;;;;;;;7.13;100.00;101031.72;5054243;28;20021;-58
2023/04/15 07:16:31;;;;;;;21.58;16.67;;;;;;;7.20;100.00;101028.66;5053686;28;20033;-59
2023/04/15 07:18:57;;;;;;;23.30;17.85;;;;;;;7.29;100.00;101034.19;5053221;28;20385;-58
2023/04/15 07:21:23;;;;;;;21.13;16.98;;;;;;;7.38;100.00;101033.75;5053238;28;20029;-58
2023/04/15 07:23:48;;;;;;;21.23;16.33;;;;;;;7.41;100.00;101033.88;5052796;28;20111;-58
2023/04/15 07:26:14;;;;;;;20.67;16.48;;;;;;;7.52;100.00;101037.81;5051754;28;20170;-58
2023/04/15 07:28:39;;;;;;;20.65;16.42;;;;;;;7.65;100.00;101043.50;5052504;28;20029;-58
2023/04/15 07:31:04;;;;;;;20.25;15.98;;;;;;;7.75;100.00;101043.97;5053245;28;20031;-56
2023/04/15 07:33:30;;;;;;;19.30;15.68;;;;;;;7.85;100.00;101047.81;5051783;28;20024;-57
2023/04/15 07:35:55;;;;;;;18.75;15.10;;;;;;;7.94;98.63;101057.63;5052946;28;20112;-57
2023/04/15 07:38:21;;;;;;;18.35;14.07;;;;;;;8.06;98.94;101063.28;5052293;28;20020;-57
2023/04/15 07:40:47;;;;;;;17.23;14.55;;;;;;;8.23;99.49;101066.56;5052282;28;20040;-57
2023/04/15 07:43:12;;;;;;;18.55;13.43;;;;;;;8.31;96.16;101074.59;5052760;28;20032;-57
2023/04/15 07:45:37;;;;;;;15.23;13.15;;;;;;;8.31;94.00;101073.72;5051971;28;20029;-56
2023/04/15 07:48:03;;;;;;;15.18;12.45;;;;;;;8.32;93.27;101076.34;5052749;28;20036;-57
2023/04/15 07:50:28;;;;;;;15.35;12.02;;;;;;;8.34;92.39;101081.53;5052322;28;20033;-57
2023/04/15 07:52:54;;;;;;;15.60;12.40;;;;;;;8.39;93.08;101080.03;5052545;28;20103;-57
2023/04/15 07:55:22;;;;;;;14.00;11.43;;;;;;;8.45;93.62;101075.19;5053126;28;20186;-57
2023/04/15 07:57:47;;;;;;;17.77;12.60;;;;;;;8.59;94.50;101080.94;5052368;28;20098;-58
2023/04/15 08:00:13;;;;;;;16.90;12.35;;;;;;;8.67;94.47;101086.38;5051625;28;20056;-57
2023/04/15 08:02:39;;;;;;;14.65;11.63;;;;;;;8.74;92.37;101090.97;5052890;28;20490;-58
2023/04/15 08:05:06;;;;;;;13.68;11.60;;;;;;;8.77;91.86;101098.78;5052966;28;20045;-57
2023/04/15 08:07:31;;;;;;;13.10;11.23;;;;;;;8.83;90.76;101095.59;5052140;28;20028;-57
2023/04/15 08:09:57;;;;;;;13.63;10.60;;;;;;;8.93;89.60;101102.00;5053014;28;20483;-58
2023/04/15 08:12:22;;;;;;;12.45;10.55;;;;;;;9.03;90.21;101096.41;5052785;28;20028;-58
2023/04/15 08:14:49;;;;;;;15.40;11.15;;;;;;;9.07;89.20;101100.84;5052364;28;20104;-57
2023/04/15 08:17:14;;;;;;;12.90;10.40;;;;;;;9.12;87.47;101104.47;5052860;28;20021;-58
2023/04/15 08:19:41;;;;;;;13.77;10.32;;;;;;;9.22;88.64;101110.88;5052558;28;20031;-58
2023/04/15 08:22:06;;;;;;;15.45;10.30;;;;;;;9.27;86.31;101118.75;5051942;28;20021;-56
2023/04/15 08:24:31;;;;;;;15.02;10.50;;;;;;;9.48;85.93;101119.59;5052052;28;20021;-57
2023/04/15 08:26:57;;;;;;;12.50;9.48;;;;;;;9.66;86.53;101123.69;5052119;28;20060;-57
2023/04/15 08:29:22;;;;;;;14.65;10.40;;;;;;;9.85;85.72;101125.22;5050970;28;20032;-57
2023/04/15 08:31:48;;;;;;;13.63;9.38;;;;;;;10.03;85.16;101128.50;5052265;28;20056;-56
2023/04/15 08:34:14;;;;;;;13.10;8.27;;;;;;;10.16;83.37;101126.34;5052557;28;20104;-57
2023/04/15 08:36:40;;;;;;;9.57;7.68;;;;;;;10.21;79.94;101133.44;5051028;28;20059;-57
2023/04/15 08:39:05;;;;;;;10.30;7.45;;;;;;;10.34;81.35;101146.72;5052305;28;20053;-56
2023/04/15 08:41:48;;;;;;;9.27;6.88;;;;;;;10.38;79.15;101144.38;5052007;28;20044;-57
2023/04/15 08:44:14;;;;;;;11.25;7.05;;;;;;;10.36;77.98;101138.25;5052564;28;20463;-58
2023/04/15 08:46:41;;;;;;;9.40;6.57;;;;;;;10.52;78.14;101152.59;5052443;28;20472;-57
2023/04/15 08:49:09;;;;;;;9.77;7.00;;;;;;;10.57;79.05;101159.59;5052116;28;20065;-57
2023/04/15 08:51:35;;;;;;;9.93;7.07;;;;;;;10.60;75.92;101164.84;5052393;28;20104;-57
2023/04/15 08:54:01;;;;;;;9.25;6.88;;;;;;;10.54;75.75;101166.38;5052413;28;20068;-57
2023/04/15 08:56:27;;;;;;;10.68;7.20;;;;;;;10.48;74.85;101173.91;5051605;28;20048;-57
2023/04/15 08:58:52;;;;;;;12.25;7.57;;;;;;;10.45;74.21;101181.53;5052612;28;20018;-57
2023/04/15 09:01:18;;;;;;;12.13;8.07;;;;;;;10.57;77.70;101182.78;5052169;28;20166;-57
2023/04/15 09:03:43;;;;;;;10.30;7.43;;;;;;;10.61;74.66;101189.78;5051750;28;20021;-57
2023/04/15 09:06:09;;;;;;;12.52;7.93;;;;;;;10.64;75.34;101185.63;5052483;28;20071;-57
2023/04/15 09:08:35;;;;;;;12.65;7.70;;;;;;;10.72;75.86;101196.22;5051708;28;20059;-57
2023/04/15 09:11:03;;;;;;;10.15;8.07;;;;;;;10.75;73.94;101198.88;5053125;28;20064;-57
2023/04/15 09:13:29;;;;;;;14.52;9.57;;;;;;;10.87;75.74;101199.31;5055966;28;20032;-57
2023/04/15 09:15:56;;;;;;;10.77;8.38;;;;;;;10.87;74.42;101207.03;5056673;28;20021;-57
2023/04/15 09:18:30;;;;;;;9.95;7.70;;;;;;;10.97;75.75;101210.78;5055434;28;20025;-57
2023/04/15 09:21:04;;;;;;;11.45;7.53;;;;;;;10.94;73.08;101212.41;5055573;28;20040;-57
2023/04/15 09:23:30;;;;;;;10.68;7.25;;;;;;;10.94;72.41;101220.16;5056001;28;20096;-56
2023/04/15 09:25:56;;;;;;;12.25;6.60;;;;;;;10.96;72.16;101218.47;5055285;28;20104;-57
2023/04/15 09:28:27;;;;;;;10.68;7.32;;;;;;;11.01;70.45;101228.16;5056061;28;20021;-57
2023/04/15 09:31:00;;;;;;;10.38;7.00;;;;;;;11.09;71.05;101233.56;5056162;28;20035;-56
2023/04/15 09:33:26;;;;;;;9.52;7.63;;;;;;;11.15;72.50;101236.31;5056123;28;20028;-57
2023/04/15 09:36:00;;;;;;;9.52;6.88;;;;;;;11.27;71.64;101232.41;5055927;28;20121;-57
2023/04/15 09:38:26;;;;;;;6.53;5.22;;;;;;;11.40;71.02;101233.69;5054150;28;20032;-57
2023/04/15 09:40:52;;;;;;;7.05;5.60;;;;;;;11.49;70.59;101242.63;5056096;28;20033;-57
2023/04/15 09:43:17;;;;;;;8.15;5.63;;;;;;;11.71;70.74;101235.56;5055515;28;20081;-57
2023/04/15 09:45:48;;;;;;;10.25;6.38;;;;;;;12.03;66.45;101238.25;5054874;28;20033;-57
2023/04/15 09:48:16;;;;;;;10.30;6.60;;;;;;;12.38;66.87;101251.31;5055708;28;20483;-57
2023/04/15 09:50:42;;;;;;;8.07;5.97;;;;;;;12.78;65.34;101244.69;5055953;28;20021;-57
2023/04/15 09:53:14;;;;;;;11.75;6.50;;;;;;;13.32;66.51;101245.19;5054238;28;20029;-56
2023/04/15 09:55:44;;;;;;;7.30;5.60;;;;;;;13.55;62.07;101247.50;5055561;28;20029;-57
2023/04/15 09:58:17;;;;;;;7.07;5.85;;;;;;;13.84;62.61;101255.97;5055744;28;20388;-56
2023/04/15 10:00:42;;;;;;;7.85;5.30;;;;;;;13.94;58.13;101257.91;5054538;28;20021;-57
2023/04/15 10:03:08;;;;;;;6.13;4.85;;;;;;;13.86;57.41;101258.59;5055526;28;20025;-56
2023/04/15 10:05:33;;;;;;;7.00;5.30;;;;;;;13.83;56.50;101259.38;5054787;28;20053;-56
2023/04/15 10:08:00;;;;;;;7.95;4.97;;;;;;;13.93;60.46;101261.34;5054499;28;20131;-56
2023/04/15 10:10:25;;;;;;;8.15;5.47;;;;;;;14.40;60.48;101268.38;5055192;28;20066;-56
2023/04/15 10:12:52;;;;;;;9.10;5.22;;;;;;;14.61;55.89;101256.69;5055481;28;20108;-56
2023/04/15 10:15:17;;;;;;;8.00;5.18;;;;;;;14.57;55.76;101267.84;5054166;28;20102;-56
2023/04/15 10:17:44;;;;;;;8.05;5.90;;;;;;;14.59;55.15;101263.56;5055384;28;20059;-56
2023/04/15 10:20:11;;;;;;;8.10;5.90;;;;;;;14.88;57.28;101252.91;5054745;28;20055;-57
2023/04/15 10:22:36;;;;;;;6.63;5.00;;;;;;;15.06;54.67;101263.63;5054385;28;20524;-57
2023/04/15 10:25:03;;;;;;;6.72;4.15;;;;;;;15.55;54.87;101260.09;5055149;28;20029;-57
2023/04/15 10:27:29;;;;;;;6.60;4.47;;;;;;;15.70;52.38;101264.66;5053993;28;20040;-56
2023/04/15 10:29:55;;;;;;;5.80;4.20;;;;;;;15.65;51.43;101272.38;5054895;28;20424;-56
2023/04/15 10:32:22;;;;;;;6.22;3.95;;;;;;;15.71;50.88;101272.50;5054514;28;20023;-57
2023/04/15 10:34:50;;;;;;;4.65;2.85;;;;;;;15.79;49.50;101273.47;5054192;28;20029;-56
2023/04/15 10:37:32;;;;;;;4.90;2.85;;;;;;;15.70;48.11;101285.44;5054279;28;20041;-57
2023/04/15 10:39:57;;;;;;;4.43;2.85;;;;;;;16.34;49.20;101280.31;5055005;28;20025;-56
2023/04/15 10:42:22;;;;;;;6.18;2.92;;;;;;;16.56;46.59;101280.56;5053799;28;20029;-57
2023/04/15 10:44:50;;;;;;;5.03;3.13;;;;;;;16.72;47.32;101285.09;5054786;28;20246;-57
2023/04/15 10:47:18;;;;;;;6.43;3.40;;;;;;;16.59;45.46;101285.81;5054219;28;20029;-57
2023/04/15 10:49:55;;;;;;;6.32;3.65;;;;;;;16.99;46.93;101283.69;5054091;28;20067;-56
2023/04/15 10:52:26;;;;;;;4.90;3.33;;;;;;;17.48;46.03;101283.25;5053938;28;20029;-57
2023/04/15 10:55:15;;;;;;;5.40;3.40;;;;;;;17.80;47.30;101290.44;5054454;28;20027;-56
2023/04/15 10:57:41;;;;;;;4.90;3.38;;;;;;;17.42;44.99;101289.28;5053671;28;20583;-56
2023/04/15 11:00:07;;;;;;;5.50;3.72;;;;;;;16.93;45.17;101286.22;5054457;28;20407;-56
2023/04/15 11:02:42;;;;;;;5.18;3.60;;;;;;;16.35;45.50;101300.25;5053544;28;20029;-56
2023/04/15 11:05:08;;;;;;;5.13;2.95;;;;;;;16.02;45.80;101298.94;5054283;28;20045;-56
2023/04/15 11:07:43;;;;;;;6.55;3.67;;;;;;;16.17;49.96;101297.44;5053540;28;20460;-56
2023/04/15 11:10:34;;;;;;;6.75;3.53;;;;;;;16.23;49.12;101292.28;5053426;28;20040;-56
2023/04/15 11:13:04;;;;;;;5.38;4.20;;;;;;;15.87;48.06;101298.72;5053997;28;20029;-56